Time;durP1;ratioP1;P1;durP2;ratioP2;P2;SDS_P1;SDS_P2;PMS_P1;PMS_P2;Temp;Humidity;BMP_temperature;BMP_pressure;BME280_temperature;BME280_humidity;BME280_pressure;Samples;Min_cycle;Max_cycle;Signal;HPM_P1;HPM_P2
2021/06/13 00:00:19;;;;;;;4.53;2.80;;;;;;;28.53;29.95;94456.81;5056376;28;20060;-54
2021/06/13 00:02:46;;;;;;;3.05;2.75;;;;;;;29.12;28.87;94458.53;5056060;28;20045;-44
2021/06/13 00:05:15;;;;;;;3.80;2.88;;;;;;;28.82;29.37;94462.69;5055855;28;20045;-43
2021/06/13 00:07:42;;;;;;;2.92;2.72;;;;;;;28.55;29.43;94449.13;5055675;28;20079;-46
2021/06/13 00:10:10;;;;;;;4.22;2.92;;;;;;;28.33;29.72;94450.47;5056227;28;20049;-44
2021/06/13 00:12:37;;;;;;;4.18;2.88;;;;;;;28.17;30.27;94453.66;5056058;28;20371;-51
2021/06/13 00:15:06;;;;;;;4.22;2.83;;;;;;;28.56;29.38;94449.88;5055776;28;20060;-43
2021/06/13 00:17:34;;;;;;;4.63;3.17;;;;;;;28.33;30.01;94452.38;5055615;28;20041;-46
2021/06/13 00:20:01;;;;;;;6.72;2.90;;;;;;;28.71;29.00;94456.66;5055211;28;20055;-47
2021/06/13 00:22:28;;;;;;;4.68;2.70;;;;;;;28.89;29.17;94445.75;5054636;28;20061;-49
2021/06/13 00:24:55;;;;;;;4.28;2.80;;;;;;;28.31;29.95;94449.34;5054447;28;20045;-50
2021/06/13 00:27:22;;;;;;;3.28;2.80;;;;;;;28.76;28.96;94453.53;5054332;28;20048;-52
2021/06/13 00:29:49;;;;;;;3.45;2.90;;;;;;;28.62;29.03;94453.66;5055604;28;20053;-43
2021/06/13 00:32:17;;;;;;;3.65;3.00;;;;;;;28.53;29.44;94450.69;5055732;28;20056;-48
2021/06/13 00:34:45;;;;;;;5.05;3.10;;;;;;;28.38;29.64;94452.00;5055740;28;20444;-45
2021/06/13 00:37:12;;;;;;;4.25;3.05;;;;;;;28.78;29.28;94445.06;5055196;28;20048;-49
2021/06/13 00:39:39;;;;;;;4.25;3.05;;;;;;;28.38;29.90;94439.31;5055029;28;20055;-49
2021/06/13 00:42:06;;;;;;;5.15;3.17;;;;;;;28.60;29.22;94439.84;5055620;28;20045;-44
2021/06/13 00:44:34;;;;;;;4.45;3.20;;;;;;;28.49;29.28;94433.81;5054161;28;20478;-47
2021/06/13 00:47:02;;;;;;;4.75;3.53;;;;;;;28.61;29.42;94435.22;5053895;28;20055;-54
2021/06/13 00:49:29;;;;;;;3.20;2.90;;;;;;;28.22;29.66;94423.66;5054174;28;20057;-52
2021/06/13 00:51:56;;;;;;;3.17;2.88;;;;;;;28.06;29.77;94423.41;5072778;28;20049;-46
2021/06/13 00:54:26;;;;;;;5.57;3.58;;;;;;;27.87;30.39;94432.78;5074511;28;20052;-47
2021/06/13 00:56:54;;;;;;;4.57;3.05;;;;;;;28.15;29.60;94421.03;5074004;28;20036;-45
2021/06/13 00:59:21;;;;;;;3.40;3.00;;;;;;;28.66;29.02;94432.91;5073917;28;20041;-45
2021/06/13 01:01:48;;;;;;;3.30;3.00;;;;;;;28.28;29.51;94425.94;5075132;28;20056;-57
2021/06/13 01:04:15;;;;;;;5.20;3.10;;;;;;;27.99;30.11;94428.84;5074352;28;20044;-47
2021/06/13 01:06:49;;;;;;;5.07;3.50;;;;;;;28.39;29.69;94429.31;5073454;28;20048;-51
2021/06/13 01:09:18;;;;;;;4.70;2.95;;;;;;;28.17;29.92;94428.72;5055001;28;20045;-45
2021/06/13 01:12:15;;;;;;;4.13;3.10;;;;;;;28.10;29.80;94418.75;5070881;28;20055;-45
2021/06/13 01:14:54;;;;;;;3.42;3.13;;;;;;;28.54;29.60;94419.94;5034007;28;20051;-44
2021/06/13 01:17:39;;;;;;;5.65;3.13;;;;;;;28.35;29.51;94418.56;5053407;28;20352;-43
2021/06/13 01:20:26;;;;;;;6.22;3.30;;;;;;;28.37;29.22;94426.28;5054139;28;20052;-44
2021/06/13 01:23:12;;;;;;;3.97;3.20;;;;;;;28.05;29.58;94415.75;5053931;28;20351;-43
2021/06/13 01:25:54;;;;;;;6.15;3.40;;;;;;;28.64;28.95;94424.47;5053224;28;20049;-56
2021/06/13 01:28:41;;;;;;;5.60;3.50;;;;;;;28.11;29.87;94424.94;5054598;28;20373;-46
2021/06/13 01:31:08;;;;;;;5.82;3.70;;;;;;;28.16;29.74;94422.56;5070003;28;20048;-44
2021/06/13 01:33:36;;;;;;;4.63;3.53;;;;;;;28.36;29.32;94424.72;5053700;28;20364;-44
2021/06/13 01:36:05;;;;;;;4.63;3.83;;;;;;;28.16;29.63;94425.25;5069643;28;20045;-44
2021/06/13 01:38:33;;;;;;;4.13;3.50;;;;;;;28.63;28.85;94433.69;5070015;28;20071;-43
2021/06/13 01:41:03;;;;;;;4.07;3.45;;;;;;;28.19;29.91;94424.47;5053429;28;20455;-45
2021/06/13 01:43:31;;;;;;;6.18;3.90;;;;;;;28.23;29.81;94414.44;5053724;28;20048;-45
2021/06/13 01:45:59;;;;;;;3.90;3.60;;;;;;;28.24;29.31;94424.06;5069512;28;20055;-52
2021/06/13 01:48:27;;;;;;;5.00;3.63;;;;;;;28.07;30.18;94424.16;5053676;28;20048;-45
2021/06/13 01:50:55;;;;;;;5.13;3.78;;;;;;;28.37;29.78;94421.66;5063903;28;20490;-44
2021/06/13 01:53:24;;;;;;;3.70;3.35;;;;;;;28.15;30.03;94410.28;5061163;28;20048;-43
2021/06/13 01:55:53;;;;;;;4.97;4.10;;;;;;;27.94;29.90;94405.84;5072265;28;20367;-50
2021/06/13 01:58:24;;;;;;;4.37;3.87;;;;;;;28.05;30.05;94400.38;5073854;28;20333;-46
2021/06/13 02:01:21;;;;;;;5.20;3.88;;;;;;;28.15;30.14;94402.22;5053045;28;20283;-52
2021/06/13 02:03:50;;;;;;;4.03;3.60;;;;;;;28.48;29.73;94395.41;5057336;28;20044;-47
2021/06/13 02:06:48;;;;;;;4.30;3.90;;;;;;;28.15;30.13;94393.41;5061584;28;20055;-45
2021/06/13 02:09:20;;;;;;;5.05;3.67;;;;;;;27.81;30.74;94391.34;5077570;28;20044;-50
2021/06/13 02:11:49;;;;;;;4.97;3.80;;;;;;;27.62;30.88;94389.97;5076985;28;20055;-46
2021/06/13 02:14:25;;;;;;;5.00;4.05;;;;;;;27.72;30.68;94385.69;5077263;28;20443;-50
2021/06/13 02:17:00;;;;;;;4.28;3.72;;;;;;;27.02;31.88;94380.28;5074918;28;20045;-46
2021/06/13 02:19:28;;;;;;;5.53;3.95;;;;;;;27.72;30.59;94379.53;5058041;28;20052;-44
2021/06/13 02:22:03;;;;;;;5.03;3.55;;;;;;;27.56;30.74;94375.38;5076341;28;20059;-46
2021/06/13 02:24:35;;;;;;;6.10;3.80;;;;;;;27.46;30.96;94376.25;5077177;28;20041;-44
2021/06/13 02:27:04;;;;;;;5.25;3.50;;;;;;;27.34;31.27;94380.16;5061766;28;20045;-47
2021/06/13 02:29:33;;;;;;;4.78;4.00;;;;;;;27.70;30.53;94382.63;5056874;28;20045;-47
2021/06/13 02:32:01;;;;;;;5.45;3.80;;;;;;;27.19;31.29;94377.94;5040504;28;20064;-45
2021/06/13 02:34:31;;;;;;;3.90;3.60;;;;;;;27.90;30.26;94389.00;5056724;28;20048;-48
2021/06/13 02:37:00;;;;;;;4.53;3.60;;;;;;;27.95;29.97;94385.13;5056668;28;20056;-44
2021/06/13 02:39:28;;;;;;;6.38;4.03;;;;;;;27.99;29.46;94385.09;5057721;28;20063;-44
2021/06/13 02:41:59;;;;;;;4.85;3.65;;;;;;;27.71;30.10;94386.06;5057595;28;20407;-47
2021/06/13 02:44:29;;;;;;;4.60;3.88;;;;;;;27.99;30.05;94385.84;5056643;28;20432;-46
2021/06/13 02:46:56;;;;;;;4.80;3.67;;;;;;;27.68;30.17;94386.88;5057216;28;20488;-48
2021/06/13 02:49:23;;;;;;;6.03;3.83;;;;;;;27.77;30.17;94387.19;5056666;28;20051;-47
2021/06/13 02:52:25;;;;;;;8.30;4.82;;;;;;;27.73;30.33;94389.13;5055405;28;20052;-45
2021/06/13 02:54:58;;;;;;;5.93;4.97;;;;;;;27.63;30.57;94390.75;5056610;28;20483;-49
2021/06/13 02:57:30;;;;;;;5.28;4.82;;;;;;;27.26;30.90;94389.38;5055770;28;20429;-44
2021/06/13 03:00:00;;;;;;;5.07;4.60;;;;;;;27.46;30.50;94392.34;5072801;28;20052;-45
2021/06/13 03:02:30;;;;;;;5.63;5.00;;;;;;;27.13;31.45;94384.88;5055857;28;20045;-44
2021/06/13 03:05:06;;;;;;;6.35;4.70;;;;;;;27.29;31.04;94395.88;5057356;28;20048;-43
2021/06/13 03:07:35;;;;;;;5.35;4.85;;;;;;;27.16;31.50;94392.13;5055610;28;20045;-43
2021/06/13 03:10:06;;;;;;;5.57;4.78;;;;;;;27.17;31.27;94397.09;5055931;28;20367;-43
2021/06/13 03:12:34;;;;;;;6.72;4.72;;;;;;;27.64;30.84;94387.66;5056256;28;20341;-42
2021/06/13 03:15:04;;;;;;;7.03;4.57;;;;;;;27.37;30.99;94393.94;5056297;28;20363;-43
2021/06/13 03:17:38;;;;;;;4.93;4.47;;;;;;;27.18;31.35;94389.81;5055515;28;20455;-43
2021/06/13 03:20:07;;;;;;;5.72;4.50;;;;;;;27.13;31.66;94379.50;5074714;28;20056;-51
2021/06/13 03:22:34;;;;;;;5.50;4.47;;;;;;;27.60;30.79;94386.13;5075921;28;20044;-44
2021/06/13 03:25:04;;;;;;;5.25;4.72;;;;;;;27.34;31.43;94382.06;5075980;28;20051;-43
2021/06/13 03:27:35;;;;;;;5.60;4.45;;;;;;;27.52;31.24;94385.41;5060279;28;20048;-43
2021/06/13 03:30:05;;;;;;;6.47;4.22;;;;;;;27.47;30.99;94380.44;5055561;28;20040;-43
2021/06/13 03:32:38;;;;;;;4.50;4.10;;;;;;;27.26;31.31;94389.38;5055713;28;20045;-43
2021/06/13 03:35:07;;;;;;;6.38;4.30;;;;;;;27.84;30.52;94395.94;5055681;28;20048;-43
2021/06/13 03:37:35;;;;;;;5.10;4.00;;;;;;;27.25;31.73;94400.50;5088716;28;20043;-44
2021/06/13 03:40:05;;;;;;;4.45;4.05;;;;;;;27.16;31.58;94389.44;5075694;28;20382;-43
2021/06/13 03:42:32;;;;;;;5.07;4.60;;;;;;;27.29;31.44;94395.88;5075700;28;20434;-49
2021/06/13 03:45:00;;;;;;;5.25;4.70;;;;;;;27.56;31.00;94396.88;5075940;28;20048;-43
2021/06/13 03:47:32;;;;;;;5.03;4.20;;;;;;;27.45;31.23;94395.41;5076259;28;20055;-48
2021/06/13 03:50:00;;;;;;;4.60;4.20;;;;;;;27.27;31.94;94384.78;5075908;28;20044;-44
2021/06/13 03:52:28;;;;;;;5.53;4.47;;;;;;;27.38;31.95;94390.09;5075473;28;20056;-45
2021/06/13 03:54:56;;;;;;;5.85;4.85;;;;;;;27.51;31.57;94389.22;5076651;28;20040;-43
2021/06/13 03:57:23;;;;;;;4.93;4.45;;;;;;;27.25;31.84;94384.41;5061296;28;20049;-47
2021/06/13 03:59:52;;;;;;;5.63;4.35;;;;;;;27.51;31.75;94383.88;5070942;28;20380;-43
2021/06/13 04:02:20;;;;;;;9.43;4.60;;;;;;;27.73;31.27;94394.50;5056294;28;20045;-48
2021/06/13 04:04:54;;;;;;;4.85;4.45;;;;;;;27.57;31.50;94382.28;5054451;28;20053;-44
2021/06/13 04:07:21;;;;;;;4.85;4.40;;;;;;;27.86;31.04;94387.50;5086643;28;20044;-44
2021/06/13 04:09:50;;;;;;;5.10;4.38;;;;;;;27.37;31.88;94381.28;5075124;28;20059;-44
2021/06/13 04:12:18;;;;;;;5.93;4.90;;;;;;;27.41;31.65;94379.34;5075973;28;20051;-43
2021/06/13 04:14:47;;;;;;;5.05;4.55;;;;;;;27.46;31.98;94370.09;5075123;28;20052;-43
2021/06/13 04:17:17;;;;;;;5.45;4.47;;;;;;;27.52;31.71;94363.91;5075501;28;20044;-42
2021/06/13 04:19:45;;;;;;;7.38;5.18;;;;;;;27.45;31.99;94373.94;5076105;28;20052;-42
2021/06/13 04:22:15;;;;;;;6.00;4.65;;;;;;;28.07;30.58;94365.81;5071770;28;20056;-42
2021/06/13 04:24:45;;;;;;;5.60;4.80;;;;;;;28.07;31.30;94365.81;5074887;28;20059;-42
2021/06/13 04:27:12;;;;;;;4.97;4.40;;;;;;;27.95;31.43;94363.63;5043987;28;20103;-44
2021/06/13 04:29:40;;;;;;;6.55;4.65;;;;;;;28.06;31.45;94358.16;5071200;28;20045;-53
2021/06/13 04:32:09;;;;;;;5.47;4.30;;;;;;;28.34;31.13;94351.78;5055451;28;20040;-42
2021/06/13 04:34:37;;;;;;;6.45;4.70;;;;;;;28.39;31.03;94356.75;5055612;28;20414;-43
2021/06/13 04:37:06;;;;;;;6.72;4.50;;;;;;;28.73;30.10;94357.50;5055002;28;20051;-45
2021/06/13 04:39:35;;;;;;;7.43;4.50;;;;;;;28.50;30.68;94374.28;5054602;28;20411;-43
2021/06/13 04:42:06;;;;;;;6.10;4.97;;;;;;;28.77;30.51;94373.59;5055159;28;20048;-42
2021/06/13 04:44:35;;;;;;;5.18;4.63;;;;;;;28.37;31.46;94369.81;5055539;28;20049;-43
2021/06/13 04:47:02;;;;;;;5.95;4.57;;;;;;;28.35;31.63;94364.06;5053883;28;20045;-44
2021/06/13 04:49:30;;;;;;;6.38;4.78;;;;;;;29.04;30.56;94366.38;5055637;28;20048;-43
2021/06/13 04:51:59;;;;;;;5.97;4.55;;;;;;;29.21;30.26;94364.63;5054357;28;20055;-44
2021/06/13 04:54:44;;;;;;;8.68;5.20;;;;;;;29.00;30.69;94359.53;5055463;28;20051;-43
2021/06/13 04:57:16;;;;;;;5.18;4.68;;;;;;;29.03;30.56;94378.31;5054624;28;20041;-44
2021/06/13 04:59:43;;;;;;;7.70;4.95;;;;;;;29.95;28.60;94368.19;5055365;28;20052;-42
2021/06/13 05:02:11;;;;;;;6.97;5.07;;;;;;;29.43;30.40;94376.63;5054996;28;20063;-44
2021/06/13 05:04:38;;;;;;;7.72;5.30;;;;;;;29.00;31.25;94378.34;5055282;28;20364;-43
2021/06/13 05:07:06;;;;;;;6.13;5.30;;;;;;;29.04;30.30;94376.38;5054413;28;20052;-51
2021/06/13 05:09:33;;;;;;;7.18;5.38;;;;;;;29.20;30.09;94378.50;5055037;28;20049;-44
2021/06/13 05:12:01;;;;;;;7.07;5.22;;;;;;;29.53;30.03;94379.59;5070167;28;20047;-43
2021/06/13 05:14:28;;;;;;;6.90;5.95;;;;;;;29.34;30.31;94379.06;5060660;28;20049;-43
2021/06/13 05:16:55;;;;;;;7.38;5.72;;;;;;;29.81;29.53;94373.78;5054450;28;20120;-47
2021/06/13 05:19:22;;;;;;;6.15;5.47;;;;;;;29.52;29.51;94378.06;5054996;28;20052;-44
2021/06/13 05:21:50;;;;;;;7.85;5.05;;;;;;;29.89;28.84;94369.81;5053890;28;20068;-44
2021/06/13 05:24:17;;;;;;;7.63;4.90;;;;;;;29.93;29.34;94365.13;5055165;28;20056;-43
2021/06/13 05:26:44;;;;;;;6.10;5.05;;;;;;;30.27;28.31;94375.00;5054484;28;20053;-49
2021/06/13 05:29:11;;;;;;;7.00;5.63;;;;;;;30.40;28.16;94359.72;5055098;28;20057;-43
2021/06/13 05:31:39;;;;;;;8.35;5.60;;;;;;;30.34;28.47;94372.16;5054119;28;20041;-45
2021/06/13 05:34:06;;;;;;;6.65;5.38;;;;;;;30.24;28.32;94373.13;5054686;28;20060;-46
2021/06/13 05:36:33;;;;;;;5.82;4.95;;;;;;;30.21;28.38;94357.78;5054106;28;20050;-43
2021/06/13 05:39:00;;;;;;;7.15;5.50;;;;;;;30.48;28.33;94366.53;5054646;28;20048;-50
2021/06/13 05:41:27;;;;;;;8.23;5.40;;;;;;;30.58;28.14;94365.56;5064428;28;20467;-50
2021/06/13 05:43:54;;;;;;;6.78;5.20;;;;;;;30.62;28.47;94360.13;5074637;28;20079;-50
2021/06/13 05:46:23;;;;;;;8.30;5.07;;;;;;;30.35;28.55;94371.00;5071844;28;20052;-45
2021/06/13 05:48:50;;;;;;;6.55;5.07;;;;;;;30.69;27.99;94360.75;5054437;28;20044;-44
2021/06/13 05:51:17;;;;;;;7.50;5.50;;;;;;;30.71;28.27;94359.56;5061826;28;20059;-47
2021/06/13 05:53:44;;;;;;;6.07;5.25;;;;;;;30.16;29.17;94361.69;5074339;28;20048;-52
2021/06/13 05:56:11;;;;;;;7.80;5.45;;;;;;;30.84;27.97;94360.47;5073098;28;20079;-44
2021/06/13 05:58:39;;;;;;;9.82;5.75;;;;;;;30.41;28.89;94360.47;5074562;28;20063;-43
2021/06/13 06:01:06;;;;;;;7.45;5.45;;;;;;;30.66;28.42;94350.78;5074418;28;20394;-43
2021/06/13 06:03:33;;;;;;;6.07;5.47;;;;;;;30.88;28.06;94361.91;5074720;28;20060;-47
2021/06/13 06:06:00;;;;;;;8.52;5.85;;;;;;;30.81;28.21;94355.91;5074030;28;20067;-44
2021/06/13 06:08:27;;;;;;;27.55;6.25;;;;;;;30.79;28.51;94363.66;5074169;28;20051;-50
2021/06/13 06:10:54;;;;;;;6.97;5.43;;;;;;;30.62;28.32;94366.28;5074130;28;20359;-43
2021/06/13 06:13:21;;;;;;;10.65;6.00;;;;;;;30.80;28.30;94359.78;5074432;28;20056;-48
2021/06/13 06:15:49;;;;;;;10.02;5.80;;;;;;;31.23;27.78;94365.88;5074504;28;20040;-43
2021/06/13 06:18:16;;;;;;;11.02;5.68;;;;;;;30.74;28.72;94375.72;5073684;28;20047;-43
2021/06/13 06:20:45;;;;;;;5.78;5.18;;;;;;;31.39;28.56;94362.44;5069685;28;20052;-45
2021/06/13 06:23:12;;;;;;;7.28;5.68;;;;;;;31.00;28.77;94363.25;5054296;28;20048;-43
2021/06/13 06:25:39;;;;;;;7.70;6.47;;;;;;;31.88;27.96;94367.91;5054339;28;20052;-56
2021/06/13 06:28:06;;;;;;;8.65;6.95;;;;;;;31.76;27.83;94363.19;5053441;28;20056;-45
2021/06/13 06:30:33;;;;;;;7.95;7.22;;;;;;;31.85;27.95;94355.25;5053848;28;20332;-43
2021/06/13 06:33:00;;;;;;;7.28;6.57;;;;;;;31.76;28.00;94352.38;5054061;28;20056;-44
2021/06/13 06:35:28;;;;;;;11.23;6.18;;;;;;;32.37;27.02;94355.13;5054089;28;20116;-46
2021/06/13 06:37:55;;;;;;;10.27;6.43;;;;;;;32.15;28.22;94348.72;5055543;28;20060;-43
2021/06/13 06:40:22;;;;;;;9.05;5.35;;;;;;;32.71;27.04;94353.84;5058075;28;20451;-48
2021/06/13 06:42:50;;;;;;;5.30;3.95;;;;;;;33.13;25.55;94351.16;5057798;28;20053;-45
2021/06/13 06:45:17;;;;;;;4.20;3.25;;;;;;;32.96;25.30;94347.75;5057696;28;20052;-48
2021/06/13 06:47:46;;;;;;;3.10;2.80;;;;;;;33.26;24.91;94341.84;5057127;28;20053;-44
2021/06/13 06:50:14;;;;;;;3.22;2.97;;;;;;;33.33;24.60;94343.63;5060626;28;20056;-48
2021/06/13 06:52:41;;;;;;;5.70;3.28;;;;;;;33.58;24.63;94338.19;5059362;28;20064;-45
2021/06/13 06:55:10;;;;;;;5.38;3.10;;;;;;;33.68;23.84;94337.09;5057616;28;20075;-46
2021/06/13 06:57:42;;;;;;;4.80;3.00;;;;;;;33.88;24.00;94346.97;5057022;28;20052;-44
2021/06/13 07:00:10;;;;;;;3.83;3.17;;;;;;;34.32;23.94;94339.69;5057543;28;20041;-45
2021/06/13 07:02:37;;;;;;;4.50;3.10;;;;;;;34.46;23.34;94338.47;5057327;28;20053;-47
2021/06/13 07:05:06;;;;;;;3.00;2.70;;;;;;;33.62;23.55;94338.84;5057527;28;20048;-43
2021/06/13 07:07:33;;;;;;;3.72;2.80;;;;;;;34.29;22.50;94341.31;5056721;28;20064;-44
2021/06/13 07:10:01;;;;;;;2.65;2.45;;;;;;;33.71;23.41;94336.22;5056236;28;20061;-44
2021/06/13 07:12:29;;;;;;;3.05;2.70;;;;;;;34.13;22.53;94335.31;5057017;28;20475;-43
2021/06/13 07:14:56;;;;;;;3.53;3.15;;;;;;;34.47;23.03;94334.56;5057310;28;20056;-47
2021/06/13 07:17:23;;;;;;;3.30;3.00;;;;;;;34.63;22.44;94331.69;5082039;28;20056;-43
2021/06/13 07:19:51;;;;;;;5.22;2.92;;;;;;;34.40;22.62;94327.44;5076783;28;20036;-44
2021/06/13 07:22:18;;;;;;;3.10;2.80;;;;;;;34.60;22.53;94327.13;5076366;28;20460;-43
2021/06/13 07:24:45;;;;;;;4.15;2.67;;;;;;;34.33;22.88;94317.53;5076653;28;20048;-44
2021/06/13 07:27:13;;;;;;;4.82;3.60;;;;;;;34.02;23.44;94330.22;5076303;28;20041;-43
2021/06/13 07:29:40;;;;;;;4.28;3.30;;;;;;;33.75;23.36;94325.25;5064292;28;20460;-44
2021/06/13 07:32:07;;;;;;;4.20;3.50;;;;;;;33.46;23.88;94322.69;5056727;28;20048;-44
2021/06/13 07:34:35;;;;;;;5.13;3.60;;;;;;;34.00;23.21;94324.50;5056930;28;20460;-44
2021/06/13 07:37:04;;;;;;;3.45;3.08;;;;;;;33.54;24.43;94320.50;5056359;28;20040;-59
2021/06/13 07:39:32;;;;;;;4.05;3.28;;;;;;;33.99;23.65;94317.56;5056972;28;20082;-52
2021/06/13 07:41:59;;;;;;;5.35;3.35;;;;;;;33.82;23.94;94327.75;5067844;28;20476;-58
2021/06/13 07:44:27;;;;;;;3.85;3.28;;;;;;;34.00;23.95;94325.25;5076961;28;20052;-60
2021/06/13 07:46:56;;;;;;;4.68;3.50;;;;;;;33.85;24.19;94328.88;5071372;28;20056;-46
2021/06/13 07:49:23;;;;;;;4.55;3.75;;;;;;;33.82;23.95;94330.44;5060468;28;20055;-50
2021/06/13 07:51:51;;;;;;;5.63;3.83;;;;;;;34.52;22.93;94320.44;5066791;28;20057;-52
2021/06/13 07:54:19;;;;;;;4.85;4.28;;;;;;;34.60;23.23;94316.25;5056254;28;20053;-43
2021/06/13 07:56:46;;;;;;;7.57;3.75;;;;;;;34.19;23.45;94320.75;5059062;28;20447;-45
2021/06/13 07:59:13;;;;;;;5.07;3.50;;;;;;;34.23;23.02;94324.09;5076408;28;20481;-49
2021/06/13 08:01:40;;;;;;;5.65;3.75;;;;;;;33.81;24.15;94317.34;5068682;28;20047;-68
2021/06/13 08:04:08;;;;;;;4.32;3.80;;;;;;;33.81;24.01;94333.59;5056552;28;20052;-43
2021/06/13 08:06:35;;;;;;;5.15;3.60;;;;;;;34.69;23.65;94329.91;5055891;28;20048;-54
2021/06/13 08:09:02;;;;;;;4.03;3.70;;;;;;;35.17;23.21;94330.53;5056208;28;20045;-53
2021/06/13 08:11:32;;;;;;;6.55;3.83;;;;;;;35.20;22.73;94329.63;5055956;28;20056;-53
2021/06/13 08:14:00;;;;;;;5.23;4.13;;;;;;;34.31;23.41;94322.66;5056148;28;20064;-55
2021/06/13 08:16:27;;;;;;;4.28;3.88;;;;;;;35.27;22.37;94334.78;5055874;28;20387;-49
2021/06/13 08:18:54;;;;;;;4.80;4.32;;;;;;;34.48;23.16;94325.22;5055617;28;20053;-53
2021/06/13 08:21:21;;;;;;;5.63;5.05;;;;;;;34.80;22.49;94335.69;5054773;28;20065;-52
2021/06/13 08:23:48;;;;;;;6.97;4.78;;;;;;;34.79;23.29;94334.19;5055792;28;20045;-49
2021/06/13 08:26:16;;;;;;;5.00;4.57;;;;;;;34.53;23.20;94338.22;5056153;28;20041;-48
2021/06/13 08:28:43;;;;;;;5.10;4.70;;;;;;;33.98;23.66;94343.91;5055239;28;20048;-54
2021/06/13 08:31:10;;;;;;;5.05;4.63;;;;;;;34.15;23.71;94344.53;5055640;28;20056;-46
2021/06/13 08:33:37;;;;;;;6.20;4.70;;;;;;;33.64;24.33;94347.28;5055864;28;20056;-56
2021/06/13 08:36:05;;;;;;;5.53;4.65;;;;;;;33.77;24.21;94347.28;5055682;28;20049;-46
2021/06/13 08:38:32;;;;;;;4.80;4.40;;;;;;;33.85;23.77;94342.44;5064592;28;20056;-55
2021/06/13 08:40:59;;;;;;;5.43;4.85;;;;;;;34.00;23.64;94351.59;5055549;28;20056;-58
2021/06/13 08:43:26;;;;;;;5.40;4.97;;;;;;;33.75;23.67;94343.47;5055307;28;20055;-63
2021/06/13 08:45:57;;;;;;;5.88;4.93;;;;;;;33.66;24.25;94349.56;5071164;28;20056;-67
2021/06/13 08:48:26;;;;;;;;;;;;;;;33.73;24.61;94349.34;5055392;28;20060;-42
2021/06/13 08:50:53;;;;;;;5.35;4.35;;;;;;;33.51;24.77;94349.25;5054564;28;20286;-49
2021/06/13 08:53:20;;;;;;;4.88;4.18;;;;;;;33.93;24.17;94358.03;5053990;28;20044;-53
2021/06/13 08:55:47;;;;;;;5.90;4.30;;;;;;;33.81;24.27;94355.28;5065616;28;20051;-53
2021/06/13 08:58:16;;;;;;;5.25;4.70;;;;;;;34.16;23.52;94354.19;5074953;28;20466;-58
2021/06/13 09:00:44;;;;;;;58.85;7.20;;;;;;;32.89;24.64;94362.25;5073905;28;20037;-45
2021/06/13 09:03:12;;;;;;;5.40;4.88;;;;;;;31.62;26.25;94358.84;5074801;28;20051;-45
2021/06/13 09:05:39;;;;;;;5.68;4.93;;;;;;;32.45;26.18;94358.38;5054417;28;20072;-51
2021/06/13 09:08:11;;;;;;;6.20;4.30;;;;;;;33.02;25.51;94368.44;5054489;28;20056;-49
2021/06/13 09:10:41;;;;;;;5.00;4.03;;;;;;;33.09;24.91;94368.25;5074791;28;20474;-47
2021/06/13 09:13:12;;;;;;;4.47;4.07;;;;;;;33.53;24.48;94368.53;5075250;28;20047;-51
2021/06/13 09:15:45;;;;;;;5.07;4.22;;;;;;;32.99;25.39;94379.38;5054828;28;20052;-48
2021/06/13 09:18:37;;;;;;;4.45;4.05;;;;;;;33.19;25.31;94384.63;5088903;28;20044;-48
2021/06/13 09:21:10;;;;;;;3.40;3.10;;;;;;;33.02;25.98;94390.09;5073964;28;20361;-49
2021/06/13 09:23:38;;;;;;;3.50;3.20;;;;;;;33.47;25.33;94391.19;5074939;28;20044;-50
2021/06/13 09:26:08;;;;;;;4.55;3.35;;;;;;;32.95;25.84;94394.97;5074669;28;20044;-49
2021/06/13 09:28:38;;;;;;;5.90;3.10;;;;;;;33.00;26.67;94402.56;5074130;28;20059;-48
2021/06/13 09:31:06;;;;;;;7.95;2.80;;;;;;;33.10;26.84;94396.84;5074832;28;20053;-52
2021/06/13 09:33:35;;;;;;;3.70;2.58;;;;;;;33.35;26.17;94406.25;5068734;28;20452;-53
2021/06/13 09:36:05;;;;;;;3.75;2.45;;;;;;;33.44;26.72;94408.31;5054470;28;20055;-49
2021/06/13 09:38:44;;;;;;;3.55;2.88;;;;;;;33.34;26.81;94407.44;5054215;28;20448;-48
2021/06/13 09:41:15;;;;;;;2.53;2.33;;;;;;;32.57;28.24;94405.63;5054496;28;20036;-49
2021/06/13 09:43:46;;;;;;;2.72;2.40;;;;;;;32.75;27.42;94401.25;5054602;28;20052;-47
2021/06/13 09:46:25;;;;;;;2.70;2.50;;;;;;;32.29;28.52;94391.66;5054335;28;20045;-48
2021/06/13 09:48:55;;;;;;;2.53;2.22;;;;;;;32.26;28.43;94389.00;5053987;28;20056;-48
2021/06/13 09:51:26;;;;;;;3.65;2.25;;;;;;;32.07;28.88;94379.81;5053499;28;20075;-52
2021/06/13 09:53:57;;;;;;;2.60;2.20;;;;;;;31.94;28.99;94395.94;5054603;28;20475;-47
2021/06/13 09:56:28;;;;;;;2.30;2.10;;;;;;;31.73;28.96;94389.09;5053759;28;20041;-47
2021/06/13 09:59:01;;;;;;;2.20;2.00;;;;;;;31.66;29.50;94385.75;5053932;28;20045;-46
2021/06/13 10:01:35;;;;;;;2.50;2.30;;;;;;;32.14;28.21;94393.16;5053524;28;20049;-48
2021/06/13 10:04:03;;;;;;;1.83;1.70;;;;;;;32.34;28.27;94401.19;5054364;28;20060;-48
2021/06/13 10:06:35;;;;;;;2.28;2.08;;;;;;;31.73;29.35;94397.19;5053954;28;20048;-47
2021/06/13 10:09:05;;;;;;;2.38;2.17;;;;;;;31.79;29.45;94400.94;5053963;28;20045;-49
2021/06/13 10:11:36;;;;;;;3.58;2.42;;;;;;;32.02;28.98;94404.66;5054308;28;20053;-60
2021/06/13 10:14:08;;;;;;;3.30;2.42;;;;;;;30.51;31.29;94403.47;5058449;28;20485;-48
2021/06/13 10:16:52;;;;;;;2.22;2.03;;;;;;;30.66;30.99;94402.03;5058074;28;20056;-49
2021/06/13 10:19:24;;;;;;;2.63;2.42;;;;;;;31.13;30.05;94404.59;5057442;28;20047;-47
2021/06/13 10:21:55;;;;;;;2.00;1.77;;;;;;;30.17;31.70;94406.34;5068762;28;20068;-51
2021/06/13 10:24:30;;;;;;;8.40;7.65;;;;;;;31.18;30.59;94408.78;5058187;28;20328;-48
2021/06/13 10:26:59;;;;;;;4.60;3.30;;;;;;;30.35;31.78;94411.44;5058106;28;20044;-47
2021/06/13 10:29:29;;;;;;;12.93;10.40;;;;;;;30.66;31.19;94415.53;5057635;28;20048;-49
2021/06/13 10:32:00;;;;;;;4.30;3.88;;;;;;;30.74;31.41;94410.03;5057837;28;20045;-48
2021/06/13 10:34:29;;;;;;;6.78;5.43;;;;;;;31.21;30.27;94411.41;5056954;28;20053;-48
2021/06/13 10:36:58;;;;;;;5.07;4.57;;;;;;;31.72;29.30;94403.78;5056820;28;20049;-49
2021/06/13 10:39:27;;;;;;;5.32;4.82;;;;;;;31.31;30.41;94406.97;5057640;28;20056;-48
2021/06/13 10:41:54;;;;;;;4.25;3.80;;;;;;;31.36;29.83;94401.06;5057635;28;20475;-47
2021/06/13 10:44:27;;;;;;;3.53;2.60;;;;;;;31.78;28.80;94410.22;5057818;28;20055;-48
2021/06/13 10:47:09;;;;;;;3.80;3.30;;;;;;;31.76;29.09;94407.19;5057517;28;20048;-47
2021/06/13 10:49:41;;;;;;;4.55;3.65;;;;;;;31.13;30.28;94410.00;5057122;28;20052;-56
2021/06/13 10:52:08;;;;;;;3.22;2.90;;;;;;;31.46;29.49;94410.13;5057186;28;20459;-47
2021/06/13 10:54:38;;;;;;;3.72;3.25;;;;;;;31.46;29.45;94410.13;5056468;28;20337;-52
2021/06/13 10:57:05;;;;;;;5.03;3.75;;;;;;;31.76;29.48;94404.47;5057253;28;20049;-48
2021/06/13 10:59:37;;;;;;;4.88;3.17;;;;;;;31.32;29.62;94415.84;5057503;28;20053;-47
2021/06/13 11:02:13;;;;;;;7.88;4.53;;;;;;;31.88;28.89;94403.03;5057444;28;20045;-47
2021/06/13 11:05:13;;;;;;;7.70;5.43;;;;;;;31.22;30.06;94402.13;5062722;28;20060;-50
2021/06/13 11:07:44;;;;;;;7.18;5.35;;;;;;;31.70;29.81;94408.81;5054277;28;20040;-49
2021/06/13 11:10:27;;;;;;;4.82;3.78;;;;;;;32.15;28.48;94400.09;5068277;28;20059;-48
2021/06/13 11:12:59;;;;;;;6.45;3.92;;;;;;;31.75;29.06;94400.25;5057405;28;20048;-49
2021/06/13 11:18:01;;;;;;;5.57;4.15;;;;;;;32.47;27.88;94397.34;5056649;28;20052;-48
2021/06/13 11:20:51;;;;;;;5.32;3.95;;;;;;;32.21;28.84;94409.19;5058438;28;20053;-48
2021/06/13 11:23:22;;;;;;;6.35;4.85;;;;;;;31.86;29.17;94395.34;5055696;28;20804;-72
2021/06/13 11:25:51;;;;;;;4.38;3.47;;;;;;;32.62;27.74;94397.75;5056752;28;20060;-68
2021/06/13 11:28:23;;;;;;;4.88;4.03;;;;;;;31.96;28.71;94398.22;5056687;28;20357;-68
2021/06/13 11:31:12;;;;;;;4.95;3.65;;;;;;;31.74;28.24;94398.72;5056535;28;20049;-51
2021/06/13 11:33:50;;;;;;;3.92;2.90;;;;;;;32.29;27.93;94388.94;5055718;28;20053;-56
2021/06/13 11:36:17;;;;;;;3.50;3.17;;;;;;;32.29;27.85;94404.41;5059297;28;20053;-53
2021/06/13 11:38:46;;;;;;;8.02;2.53;;;;;;;32.54;26.69;94390.25;5075930;28;20083;-46
2021/06/13 11:41:35;;;;;;;2.70;2.50;;;;;;;31.44;28.47;94396.28;5076510;28;20037;-44
2021/06/13 11:44:04;;;;;;;2.60;2.40;;;;;;;32.13;27.27;94386.97;5076757;28;20375;-45
2021/06/13 11:46:42;;;;;;;3.20;2.47;;;;;;;32.31;27.13;94392.00;5076258;28;20044;-44
2021/06/13 11:49:13;;;;;;;5.70;3.20;;;;;;;32.48;26.77;94392.69;5076330;28;20056;-43